createdAt,value
2023-07-18T00:00:00.944Z,14.9
2023-07-18T00:03:01.117Z,14.9
2023-07-18T00:06:00.944Z,14.9
2023-07-18T00:09:00.975Z,14.9
2023-07-18T00:12:00.974Z,14.9
2023-07-18T00:15:00.968Z,14.9
2023-07-18T00:18:01.007Z,14.9
2023-07-18T00:21:00.937Z,14.9
2023-07-18T00:24:01.088Z,14.9
2023-07-18T00:27:00.954Z,14.9
2023-07-18T00:30:00.968Z,14.9
2023-07-18T00:33:00.975Z,14.9
2023-07-18T00:36:00.962Z,14.9
2023-07-18T00:39:00.978Z,14.9
2023-07-18T00:42:00.971Z,14.9
2023-07-18T00:45:01.013Z,14.9
2023-07-18T00:48:01.184Z,14.9
2023-07-18T00:51:01.008Z,14.9
2023-07-18T00:54:00.913Z,14.9
2023-07-18T00:57:00.973Z,14.9
2023-07-18T01:00:00.918Z,14.9
2023-07-18T01:03:01.140Z,14.9
2023-07-18T01:06:00.965Z,14.9
2023-07-18T01:09:00.956Z,14.4
2023-07-18T01:12:00.961Z,14.4
2023-07-18T01:15:00.934Z,14.4
2023-07-18T01:18:00.956Z,14.4
2023-07-18T01:21:00.942Z,14.4
2023-07-18T01:24:01.001Z,14.4
2023-07-18T01:27:00.905Z,14.4
2023-07-18T01:30:00.976Z,14.4
2023-07-18T01:33:01.076Z,14.4
2023-07-18T01:36:00.938Z,14.4
2023-07-18T01:39:00.945Z,14.4
2023-07-18T01:42:00.934Z,14.4
2023-07-18T01:45:01.238Z,14.4
2023-07-18T01:48:01.198Z,14.4
2023-07-18T01:51:00.956Z,14.4
2023-07-18T01:54:00.955Z,14.4
2023-07-18T01:57:00.951Z,14.4
2023-07-18T02:00:01.067Z,14.4
2023-07-18T02:03:02.014Z,14.4
2023-07-18T02:06:00.982Z,14.4
2023-07-18T02:09:01.199Z,14.4
2023-07-18T02:12:01.051Z,14.4
2023-07-18T02:15:01.404Z,14.4
2023-07-18T02:18:02.892Z,14.4
2023-07-18T02:21:01.245Z,14.4
2023-07-18T02:24:01.149Z,14.4
2023-07-18T02:27:01.174Z,14.4
2023-07-18T02:30:01.016Z,14.4
2023-07-18T02:33:02.670Z,14.4
2023-07-18T02:36:00.994Z,14.4
2023-07-18T02:39:01.077Z,14.4
2023-07-18T02:42:01.102Z,14.4
2023-07-18T02:45:01.013Z,14.4
2023-07-18T02:48:02.188Z,14.4
2023-07-18T02:51:01.100Z,14.4
2023-07-18T02:54:01.699Z,14.1
2023-07-18T02:57:01.025Z,14.1
2023-07-18T03:00:01.169Z,14.1
2023-07-18T03:03:02.133Z,14.1
2023-07-18T03:06:00.965Z,14.1
2023-07-18T03:09:00.927Z,14.1
2023-07-18T03:12:01.016Z,14.1
2023-07-18T03:15:00.965Z,14.1
2023-07-18T03:18:02.384Z,14
2023-07-18T03:21:01.034Z,14
2023-07-18T03:24:01.030Z,14
2023-07-18T03:27:00.992Z,14
2023-07-18T03:30:00.963Z,14
2023-07-18T03:33:02.366Z,14
2023-07-18T03:36:00.903Z,14
2023-07-18T03:39:01.033Z,14
2023-07-18T03:42:00.969Z,14
2023-07-18T03:45:00.960Z,14
2023-07-18T03:48:01.131Z,14
2023-07-18T03:51:01.002Z,14
2023-07-18T03:54:00.991Z,14
2023-07-18T03:57:01.115Z,14
2023-07-18T04:00:01.174Z,14
2023-07-18T04:03:01.299Z,14.1
2023-07-18T04:06:00.953Z,14.1
2023-07-18T04:09:01.010Z,14.1
2023-07-18T04:12:01.099Z,14.1
2023-07-18T04:15:00.967Z,14.1
2023-07-18T04:18:01.263Z,14.1
2023-07-18T04:21:01.015Z,14.1
2023-07-18T04:24:01.024Z,14.1
2023-07-18T04:27:00.961Z,14.1
2023-07-18T04:30:01.042Z,14.1
2023-07-18T04:33:01.167Z,14.1
2023-07-18T04:36:00.998Z,14.6
2023-07-18T04:39:01.009Z,14.6
2023-07-18T04:42:00.963Z,14.6
2023-07-18T04:45:01.328Z,14.6
2023-07-18T04:48:01.081Z,14.6
2023-07-18T04:51:01.047Z,14.6
2023-07-18T04:54:00.948Z,14.6
2023-07-18T04:57:01.005Z,14.6
2023-07-18T05:00:01.158Z,15.1
2023-07-18T05:03:01.069Z,15.1
2023-07-18T05:06:01.003Z,15.1
2023-07-18T05:09:01.173Z,15.1
2023-07-18T05:12:01.016Z,15.1
2023-07-18T05:15:01.114Z,15.1
2023-07-18T05:18:01.264Z,15.1
2023-07-18T05:21:01.012Z,15.1
2023-07-18T05:24:01.084Z,15.1
2023-07-18T05:27:01.032Z,15.1
2023-07-18T05:30:01.197Z,15.1
2023-07-18T05:33:01.076Z,15.1
2023-07-18T05:36:01.023Z,15.6
2023-07-18T05:39:00.956Z,15.6
2023-07-18T05:42:01.002Z,15.6
2023-07-18T05:45:01.065Z,15.6
2023-07-18T05:48:01.075Z,15.6
2023-07-18T05:51:00.964Z,15.6
2023-07-18T05:54:01.006Z,15.6
2023-07-18T05:57:01.021Z,15.6
2023-07-18T06:00:01.108Z,16.1
2023-07-18T06:03:01.258Z,16.1
2023-07-18T06:06:00.982Z,16.1
2023-07-18T06:09:00.986Z,16.6
2023-07-18T06:12:01.196Z,16.6
2023-07-18T06:15:00.968Z,16.6
2023-07-18T06:18:01.326Z,16.6
2023-07-18T06:21:01.060Z,16.6
2023-07-18T06:24:18.557Z,17.1
2023-07-18T06:27:01.033Z,17.1
2023-07-18T06:30:01.092Z,17.1
2023-07-18T06:33:01.106Z,17.1
2023-07-18T06:36:01.077Z,17.1
2023-07-18T06:39:00.960Z,17.6
2023-07-18T06:42:01.021Z,17.6
2023-07-18T06:45:01.009Z,17.6
2023-07-18T06:48:01.104Z,17.6
2023-07-18T06:51:01.058Z,17.6
2023-07-18T06:54:01.102Z,18.1
2023-07-18T06:57:00.958Z,18.1
2023-07-18T07:00:01.160Z,18.1
2023-07-18T07:03:01.154Z,18.1
2023-07-18T07:06:00.968Z,18.7
2023-07-18T07:09:00.997Z,18.7
2023-07-18T07:12:00.955Z,18.7
2023-07-18T07:15:01.002Z,18.7
2023-07-18T07:18:01.119Z,18.7
2023-07-18T07:21:01.040Z,19.2
2023-07-18T07:24:01.000Z,19.2
2023-07-18T07:27:01.002Z,19.2
2023-07-18T07:30:01.082Z,19.2
2023-07-18T07:33:01.157Z,19.2
2023-07-18T07:36:01.075Z,19.2
2023-07-18T07:39:01.031Z,19.7
2023-07-18T07:42:00.999Z,19.7
2023-07-18T07:45:00.981Z,19.7
2023-07-18T07:48:01.030Z,19.7
2023-07-18T07:51:01.016Z,19.7
2023-07-18T07:54:01.015Z,19.7
2023-07-18T07:57:01.039Z,20.2
2023-07-18T08:00:01.642Z,20.2
2023-07-18T08:03:01.138Z,20.2
2023-07-18T08:06:00.955Z,20.2
2023-07-18T08:09:01.115Z,20.2
2023-07-18T08:12:01.106Z,20.2
2023-07-18T08:15:01.026Z,20.2
2023-07-18T08:18:01.160Z,20.2
2023-07-18T08:21:00.989Z,20.2
2023-07-18T08:24:01.012Z,20.2
2023-07-18T08:27:00.951Z,20.2
2023-07-18T08:30:01.054Z,20.2
2023-07-18T08:33:01.007Z,20.2
2023-07-18T08:36:00.970Z,21.2
2023-07-18T08:39:01.069Z,21.2
2023-07-18T08:42:01.067Z,21.2
2023-07-18T08:45:00.966Z,21.2
2023-07-18T08:48:01.008Z,21.2
2023-07-18T08:51:00.998Z,21.6
2023-07-18T08:54:00.977Z,21.6
2023-07-18T08:57:01.046Z,21.6
2023-07-18T09:00:01.055Z,21.6
2023-07-18T09:03:01.124Z,21.6
2023-07-18T09:06:01.014Z,21.6
2023-07-18T09:09:01.182Z,21.6
2023-07-18T09:12:05.364Z,21.6
2023-07-18T09:15:00.978Z,22.1
2023-07-18T09:18:01.768Z,22.1
2023-07-18T09:21:01.004Z,22.1
2023-07-18T09:24:00.980Z,22.1
2023-07-18T09:27:00.980Z,22.1
2023-07-18T09:30:01.074Z,22.1
2023-07-18T09:33:01.062Z,22.1
2023-07-18T09:36:00.981Z,22.1
2023-07-18T09:39:01.017Z,22.1
2023-07-18T09:42:04.039Z,22.1
2023-07-18T09:45:11.477Z,22.5
2023-07-18T09:48:01.101Z,22.5
2023-07-18T09:51:01.020Z,22.5
2023-07-18T09:54:04.208Z,22.5
2023-07-18T09:57:01.196Z,22.5
2023-07-18T10:00:01.049Z,22.5
2023-07-18T10:03:01.187Z,22.5
2023-07-18T10:06:00.983Z,22.5
2023-07-18T10:09:00.971Z,22.5
2023-07-18T10:12:01.025Z,23
2023-07-18T10:15:01.022Z,23
2023-07-18T10:18:01.035Z,23
2023-07-18T10:21:01.059Z,23
2023-07-18T10:24:01.007Z,23.4
2023-07-18T10:27:01.044Z,23.4
2023-07-18T10:30:01.036Z,23.4
2023-07-18T10:33:01.075Z,23.4
2023-07-18T10:36:00.974Z,23.4
2023-07-18T10:39:01.065Z,23.4
2023-07-18T10:42:01.010Z,23.4
2023-07-18T10:45:01.070Z,23.4
2023-07-18T10:48:01.152Z,23.4
2023-07-18T10:51:00.985Z,23.4
2023-07-18T10:54:01.031Z,23.4
2023-07-18T10:57:01.014Z,23.7
2023-07-18T11:00:01.151Z,23.7
2023-07-18T11:03:00.997Z,23.7
2023-07-18T11:06:01.283Z,23.7
2023-07-18T11:09:01.097Z,23.7
2023-07-18T11:12:01.013Z,23.7
2023-07-18T11:15:01.343Z,23.7
2023-07-18T11:18:01.175Z,24.2
2023-07-18T11:21:03.181Z,24.2
2023-07-18T11:24:00.992Z,24.2
2023-07-18T11:27:00.999Z,24.2
2023-07-18T11:30:01.299Z,24.2
2023-07-18T11:33:01.107Z,24.2
2023-07-18T11:36:01.026Z,24.2
2023-07-18T11:39:00.958Z,24.2
2023-07-18T11:42:01.111Z,24.2
2023-07-18T11:45:01.073Z,24.2
2023-07-18T11:48:01.186Z,24.2
2023-07-18T11:51:01.007Z,24.2
2023-07-18T11:54:01.048Z,24.2
2023-07-18T11:57:00.958Z,24.2
2023-07-18T12:00:01.108Z,24.2
2023-07-18T12:03:01.110Z,24.2
2023-07-18T12:06:00.981Z,24.2
2023-07-18T12:09:01.050Z,24.2
2023-07-18T12:12:01.150Z,24.2
2023-07-18T12:15:00.952Z,24.2
2023-07-18T12:18:01.210Z,24.2
2023-07-18T12:21:00.964Z,24.2
2023-07-18T12:24:00.987Z,24.2
2023-07-18T12:27:00.964Z,24.2
2023-07-18T12:30:01.027Z,24.2
2023-07-18T12:33:01.142Z,24.2
2023-07-18T12:36:01.033Z,24.2
2023-07-18T12:39:00.970Z,24.2
2023-07-18T12:42:01.293Z,24.9
2023-07-18T12:45:01.021Z,24.9
2023-07-18T12:48:01.140Z,24.9
2023-07-18T12:51:00.990Z,24.9
2023-07-18T12:54:02.924Z,24.9
2023-07-18T12:57:01.020Z,24.9
2023-07-18T13:00:01.344Z,24.9
2023-07-18T13:03:01.181Z,24.9
2023-07-18T13:06:00.990Z,24.7
2023-07-18T13:09:01.040Z,24.7
2023-07-18T13:12:01.003Z,24.7
2023-07-18T13:15:00.973Z,24.7
2023-07-18T13:18:01.162Z,24.8
2023-07-18T13:21:00.928Z,24.8
2023-07-18T13:24:01.053Z,24.8
2023-07-18T13:27:00.936Z,24.8
2023-07-18T13:30:01.040Z,24.8
2023-07-18T13:33:01.122Z,24.8
2023-07-18T13:36:00.987Z,25
2023-07-18T13:39:01.040Z,25
2023-07-18T13:42:01.056Z,25
2023-07-18T13:45:01.015Z,25
2023-07-18T13:48:01.099Z,25
2023-07-18T13:51:00.998Z,25
2023-07-18T13:54:01.071Z,25
2023-07-18T13:57:04.063Z,25
2023-07-18T14:00:01.490Z,25
2023-07-18T14:03:01.174Z,25
2023-07-18T14:06:00.998Z,25
2023-07-18T14:09:00.997Z,25
2023-07-18T14:12:01.004Z,25
2023-07-18T14:15:01.005Z,25
2023-07-18T14:18:01.188Z,25
2023-07-18T14:21:00.959Z,25
2023-07-18T14:24:01.062Z,25
2023-07-18T14:27:01.099Z,25
2023-07-18T14:30:01.142Z,25
2023-07-18T14:33:05.427Z,24.8
2023-07-18T14:36:01.017Z,24.8
2023-07-18T14:39:01.056Z,24.8
2023-07-18T14:42:01.259Z,24.8
2023-07-18T14:45:01.013Z,24.8
2023-07-18T14:48:01.091Z,24.8
2023-07-18T14:51:00.990Z,24.8
2023-07-18T14:54:01.004Z,24.6
2023-07-18T14:57:03.552Z,24.6
2023-07-18T15:00:01.242Z,24.6
2023-07-18T15:03:01.021Z,24.6
2023-07-18T15:06:01.010Z,24.6
2023-07-18T15:09:01.121Z,24.6
2023-07-18T15:12:01.071Z,24.6
2023-07-18T15:15:00.997Z,24.6
2023-07-18T15:18:01.144Z,24.6
2023-07-18T15:21:01.058Z,24.6
2023-07-18T15:24:01.027Z,24.6
2023-07-18T15:27:01.047Z,24.6
2023-07-18T15:30:01.207Z,24.6
2023-07-18T15:33:25.408Z,24.6
2023-07-18T15:36:01.128Z,24.9
2023-07-18T15:39:00.962Z,24.9
2023-07-18T15:42:01.260Z,24.9
2023-07-18T15:45:00.966Z,24.9
2023-07-18T15:48:01.073Z,24.9
2023-07-18T15:51:00.969Z,24.9
2023-07-18T15:54:01.005Z,24.8
2023-07-18T15:57:01.020Z,24.8
2023-07-18T16:00:01.004Z,24.8
2023-07-18T16:03:01.137Z,24.8
2023-07-18T16:06:00.961Z,24.8
2023-07-18T16:09:01.052Z,24.8
2023-07-18T16:12:00.963Z,24.8
2023-07-18T16:15:00.988Z,24.8
2023-07-18T16:18:01.102Z,24.7
2023-07-18T16:21:01.004Z,24.7
2023-07-18T16:24:00.995Z,24.7
2023-07-18T16:27:00.931Z,24.7
2023-07-18T16:30:00.974Z,24.7
2023-07-18T16:33:01.171Z,24.7
2023-07-18T16:36:01.136Z,24.7
2023-07-18T16:39:01.023Z,24.7
2023-07-18T16:42:23.186Z,24.7
2023-07-18T16:45:00.998Z,24.7
2023-07-18T16:48:01.147Z,24.7
2023-07-18T16:51:01.047Z,24.7
2023-07-18T16:54:00.974Z,24.7
2023-07-18T16:57:00.988Z,24.7
2023-07-18T17:00:01.025Z,24.5
2023-07-18T17:03:01.086Z,24.5
2023-07-18T17:06:00.977Z,24.5
2023-07-18T17:09:01.058Z,24.5
2023-07-18T17:12:00.992Z,24.5
2023-07-18T17:15:01.052Z,24.5
2023-07-18T17:18:01.060Z,24.5
2023-07-18T17:21:00.972Z,24.5
2023-07-18T17:24:01.013Z,24.5
2023-07-18T17:27:01.019Z,24.5
2023-07-18T17:30:01.015Z,24.5
2023-07-18T17:33:01.096Z,24.5
2023-07-18T17:36:00.942Z,24.5
2023-07-18T17:39:01.795Z,24.5
2023-07-18T17:42:00.952Z,24.5
2023-07-18T17:45:00.987Z,24.3
2023-07-18T17:48:01.057Z,24.3
2023-07-18T17:51:01.036Z,24.3
2023-07-18T17:54:01.146Z,24.3
2023-07-18T17:57:01.023Z,24.3
2023-07-18T18:00:01.101Z,24.3
2023-07-18T18:03:01.175Z,24.3
2023-07-18T18:06:01.007Z,24.3
2023-07-18T18:09:01.786Z,24.3
2023-07-18T18:12:00.976Z,24.3
2023-07-18T18:15:00.991Z,24.3
2023-07-18T18:18:01.127Z,24.3
2023-07-18T18:21:00.999Z,24.3
2023-07-18T18:24:01.054Z,23.9
2023-07-18T18:27:00.996Z,23.9
2023-07-18T18:30:00.984Z,23.9
2023-07-18T18:33:01.101Z,23.9
2023-07-18T18:36:00.979Z,23.9
2023-07-18T18:39:01.192Z,23.9
2023-07-18T18:42:00.999Z,23.9
2023-07-18T18:45:00.968Z,23.9
2023-07-18T18:48:01.134Z,23.9
2023-07-18T18:51:00.986Z,23.6
2023-07-18T18:54:01.939Z,23.6
2023-07-18T18:57:01.003Z,23.6
2023-07-18T19:00:01.091Z,23.6
2023-07-18T19:03:01.167Z,23.6
2023-07-18T19:06:01.084Z,23.6
2023-07-18T19:09:01.171Z,23.6
2023-07-18T19:12:01.116Z,23.1
2023-07-18T19:15:00.972Z,23.1
2023-07-18T19:18:01.024Z,23.1
2023-07-18T19:21:01.002Z,23.1
2023-07-18T19:24:01.953Z,23.1
2023-07-18T19:27:01.096Z,23.1
2023-07-18T19:30:00.976Z,23.1
2023-07-18T19:33:01.062Z,22.5
2023-07-18T19:36:00.953Z,22.5
2023-07-18T19:39:01.107Z,22.5
2023-07-18T19:42:00.943Z,22.5
2023-07-18T19:45:00.985Z,22.5
2023-07-18T19:48:01.233Z,22
2023-07-18T19:51:01.088Z,22
2023-07-18T19:54:01.171Z,22
2023-07-18T19:57:01.100Z,22
2023-07-18T20:00:01.328Z,22
2023-07-18T20:03:01.306Z,21.5
2023-07-18T20:06:01.080Z,21.5
2023-07-18T20:09:00.974Z,21.5
2023-07-18T20:12:01.014Z,21.5
2023-07-18T20:15:00.968Z,21.5
2023-07-18T20:18:01.118Z,21.5
2023-07-18T20:21:01.130Z,21
2023-07-18T20:24:01.055Z,21
2023-07-18T20:27:01.072Z,21
2023-07-18T20:30:00.977Z,21
2023-07-18T20:33:01.172Z,21
2023-07-18T20:36:00.940Z,21
2023-07-18T20:39:01.832Z,20.5
2023-07-18T20:42:00.966Z,20.5
2023-07-18T20:45:01.067Z,20.5
2023-07-18T20:48:01.114Z,20.5
2023-07-18T20:51:00.966Z,20
2023-07-18T20:54:06.239Z,20
2023-07-18T20:57:00.952Z,20
2023-07-18T21:00:00.963Z,20
2023-07-18T21:03:00.971Z,20
2023-07-18T21:06:00.943Z,20
2023-07-18T21:09:01.044Z,19.5
2023-07-18T21:12:01.004Z,19.5
2023-07-18T21:15:00.915Z,19.5
2023-07-18T21:18:01.054Z,19.5
2023-07-18T21:21:00.952Z,19.5
2023-07-18T21:24:00.951Z,19
2023-07-18T21:27:06.750Z,19
2023-07-18T21:30:00.950Z,19
2023-07-18T21:33:01.109Z,19
2023-07-18T21:36:00.956Z,19
2023-07-18T21:39:00.939Z,19
2023-07-18T21:42:00.961Z,18.5
2023-07-18T21:45:00.938Z,18.5
2023-07-18T21:48:01.136Z,18.5
2023-07-18T21:51:00.921Z,18.5
2023-07-18T21:54:00.944Z,18.5
2023-07-18T21:57:00.941Z,18.5
2023-07-18T22:00:01.662Z,18.5
2023-07-18T22:03:01.053Z,18
2023-07-18T22:06:01.000Z,18
2023-07-18T22:09:01.033Z,18
2023-07-18T22:12:00.912Z,18
2023-07-18T22:15:00.937Z,18
2023-07-18T22:18:24.950Z,18
2023-07-18T22:21:00.935Z,18
2023-07-18T22:24:00.925Z,18
2023-07-18T22:27:00.931Z,18
2023-07-18T22:30:00.940Z,18
2023-07-18T22:33:00.985Z,17.5
2023-07-18T22:36:00.923Z,17.5
2023-07-18T22:39:00.910Z,17.5
2023-07-18T22:42:00.939Z,17.5
2023-07-18T22:45:00.916Z,17.5
2023-07-18T22:48:01.071Z,17.5
2023-07-18T22:51:00.898Z,17.5
2023-07-18T22:54:00.950Z,17.5
2023-07-18T22:57:00.912Z,17.5
2023-07-18T23:00:01.014Z,17.5
2023-07-18T23:03:01.201Z,17.1
2023-07-18T23:06:00.942Z,17.1
2023-07-18T23:09:00.901Z,17.1
2023-07-18T23:12:00.924Z,17.1
2023-07-18T23:15:00.941Z,17.1
2023-07-18T23:18:01.013Z,17.1
2023-07-18T23:21:00.931Z,17.1
2023-07-18T23:24:00.888Z,17.1
2023-07-18T23:27:01.000Z,17.1
2023-07-18T23:30:00.929Z,17.1
2023-07-18T23:33:01.011Z,17.1
2023-07-18T23:36:00.957Z,16.6
2023-07-18T23:39:00.976Z,16.6
2023-07-18T23:42:00.879Z,16.6
2023-07-18T23:45:00.971Z,16.6
2023-07-18T23:48:06.475Z,16.6
2023-07-18T23:51:00.932Z,16.6
2023-07-18T23:54:00.927Z,16.6
2023-07-18T23:57:00.917Z,16.6
